Time;durP1;ratioP1;P1;durP2;ratioP2;P2;SDS_P1;SDS_P2;PMS_P1;PMS_P2;Temp;Humidity;BMP_temperature;BMP_pressure;BME280_temperature;BME280_humidity;BME280_pressure;Samples;Min_cycle;Max_cycle;Signal;HPM_P1;HPM_P2
2023/01/20 00:01:39;;;;;;;31.55;14.98;;;2.50;99.90;;;;;;5017361;28;20068;-87
2023/01/20 00:04:05;;;;;;;30.38;15.73;;;2.40;99.90;;;;;;5000748;28;20537;-88
2023/01/20 00:06:31;;;;;;;31.65;15.77;;;2.50;99.90;;;;;;5016513;28;20467;-88
2023/01/20 00:09:00;;;;;;;38.78;17.52;;;2.40;99.90;;;;;;5018013;28;20066;-88
2023/01/20 00:11:29;;;;;;;38.17;17.75;;;2.40;99.90;;;;;;5016605;28;20026;-88
2023/01/20 00:13:57;;;;;;;45.63;19.90;;;2.40;99.90;;;;;;5016692;28;20030;-88
2023/01/20 00:16:23;;;;;;;41.50;19.98;;;2.40;99.90;;;;;;4984276;28;20141;-88
2023/01/20 00:18:49;;;;;;;45.03;20.77;;;2.40;99.90;;;;;;5016452;28;20022;-88
2023/01/20 00:21:17;;;;;;;49.97;22.52;;;2.40;99.90;;;;;;4967559;28;20368;-88
2023/01/20 00:23:44;;;;;;;42.72;21.40;;;2.40;99.90;;;;;;5016331;28;20036;-88
2023/01/20 00:26:15;;;;;;;48.13;22.45;;;2.50;99.90;;;;;;5016239;28;20121;-87
2023/01/20 00:28:42;;;;;;;47.40;22.67;;;2.40;99.90;;;;;;5015975;28;20033;-88
2023/01/20 00:31:20;;;;;;;46.00;22.63;;;2.40;99.90;;;;;;5015510;28;20038;-85
2023/01/20 00:33:48;;;;;;;47.83;23.92;;;2.40;99.90;;;;;;5017171;28;20042;-86
2023/01/20 00:36:15;;;;;;;54.90;24.38;;;2.40;99.90;;;;;;5015853;28;20037;-86
2023/01/20 00:38:41;;;;;;;51.70;24.73;;;2.40;99.90;;;;;;5015945;28;20065;-86
2023/01/20 00:41:07;;;;;;;54.60;24.88;;;2.40;99.90;;;;;;5017058;28;20030;-86
2023/01/20 00:43:33;;;;;;;49.22;24.35;;;2.40;99.90;;;;;;4999578;28;20061;-86
2023/01/20 00:45:59;;;;;;;54.35;25.90;;;2.40;99.90;;;;;;4999527;28;20072;-86
2023/01/20 00:48:25;;;;;;;53.05;26.48;;;2.40;99.90;;;;;;5016178;28;20030;-88
2023/01/20 00:50:50;;;;;;;51.35;23.90;;;2.40;99.90;;;;;;5016327;28;20034;-88
2023/01/20 00:53:17;;;;;;;49.47;23.20;;;2.40;99.90;;;;;;4967183;28;20030;-87
2023/01/20 00:55:43;;;;;;;59.53;26.52;;;2.40;99.90;;;;;;5016086;28;20479;-87
2023/01/20 00:58:08;;;;;;;53.83;23.65;;;2.40;99.90;;;;;;4983895;28;20088;-88
2023/01/20 01:00:34;;;;;;;55.75;25.13;;;2.40;99.90;;;;;;4967234;28;20034;-88
2023/01/20 01:03:00;;;;;;;50.03;24.77;;;2.50;99.90;;;;;;4967711;28;20057;-88
2023/01/20 01:05:26;;;;;;;47.25;23.70;;;2.50;99.90;;;;;;4967108;28;20489;-88
2023/01/20 01:07:51;;;;;;;51.20;24.75;;;2.50;99.90;;;;;;4966952;28;20494;-88
2023/01/20 01:10:17;;;;;;;47.80;22.58;;;2.50;99.90;;;;;;4999099;28;20037;-88
2023/01/20 01:12:43;;;;;;;51.63;23.08;;;2.50;99.90;;;;;;5015270;28;20124;-88
2023/01/20 01:15:09;;;;;;;48.20;24.40;;;2.50;99.90;;;;;;4966866;28;20045;-88
2023/01/20 01:17:35;;;;;;;43.92;22.65;;;2.50;99.90;;;;;;5000068;28;20109;-88
2023/01/20 01:20:00;;;;;;;50.50;22.58;;;2.50;99.90;;;;;;4998675;28;20080;-88
2023/01/20 01:22:26;;;;;;;47.58;22.52;;;2.50;99.90;;;;;;4999214;28;20483;-86
2023/01/20 01:24:52;;;;;;;41.47;20.73;;;2.50;99.90;;;;;;4982179;28;20076;-85
2023/01/20 01:27:17;;;;;;;40.60;21.08;;;2.50;99.90;;;;;;4997952;28;20042;-86
2023/01/20 01:29:43;;;;;;;41.83;20.60;;;2.50;99.90;;;;;;4997753;28;20099;-86
2023/01/20 01:32:09;;;;;;;41.97;19.58;;;2.60;99.90;;;;;;5013665;28;20515;-86
2023/01/20 01:34:34;;;;;;;36.70;19.08;;;2.60;99.90;;;;;;4997946;28;20038;-88
2023/01/20 01:37:00;;;;;;;44.40;21.33;;;2.60;99.90;;;;;;4998378;28;20092;-88
2023/01/20 01:39:26;;;;;;;36.58;19.42;;;2.60;99.90;;;;;;5015766;28;20041;-88
2023/01/20 01:41:58;;;;;;;34.70;19.88;;;2.50;99.90;;;;;;5000919;28;20117;-88
2023/01/20 01:44:26;;;;;;;38.05;19.42;;;2.50;99.90;;;;;;4983388;28;20049;-88
2023/01/20 01:46:52;;;;;;;41.40;20.23;;;2.60;99.90;;;;;;5017181;28;20368;-89
2023/01/20 01:49:22;;;;;;;39.17;19.30;;;2.50;99.90;;;;;;4968397;28;20096;-88
2023/01/20 01:51:57;;;;;;;40.00;19.85;;;2.50;99.90;;;;;;5016712;28;20053;-88
2023/01/20 01:54:26;;;;;;;40.60;20.52;;;2.60;99.90;;;;;;5000711;28;20036;-87
2023/01/20 01:56:52;;;;;;;39.45;19.75;;;2.60;99.90;;;;;;5034036;28;20045;-87
2023/01/20 01:59:19;;;;;;;39.15;19.45;;;2.60;99.90;;;;;;5034015;28;20091;-88
2023/01/20 02:01:52;;;;;;;36.90;19.13;;;2.60;99.90;;;;;;5035239;28;20025;-88
2023/01/20 02:04:24;;;;;;;37.53;18.63;;;2.70;99.90;;;;;;5017529;28;20231;-88
2023/01/20 02:07:18;;;;;;;34.35;17.48;;;2.60;99.90;;;;;;5033642;28;20052;-88
2023/01/20 02:09:44;;;;;;;39.08;18.38;;;2.60;99.90;;;;;;5032195;28;20069;-88
2023/01/20 02:12:17;;;;;;;32.13;16.60;;;2.60;99.90;;;;;;5033780;28;20036;-85
2023/01/20 02:14:49;;;;;;;33.97;17.48;;;2.60;99.90;;;;;;5033125;28;20029;-84
2023/01/20 02:17:27;;;;;;;35.80;17.42;;;2.50;99.90;;;;;;5034281;28;20033;-84
2023/01/20 02:20:14;;;;;;;32.78;16.60;;;2.60;99.90;;;;;;5033472;28;20025;-85
2023/01/20 02:23:48;;;;;;;35.85;17.50;;;2.50;99.90;;;;;;5033035;28;20033;-84
2023/01/20 02:26:18;;;;;;;29.08;14.88;;;2.50;99.90;;;;;;4954029;29;20588;-85
2023/01/20 02:29:18;;;;;;;36.17;18.10;;;2.50;99.90;;;;;;5015978;28;20041;-84
2023/01/20 02:32:05;;;;;;;31.25;17.55;;;2.50;99.90;;;;;;5035292;28;20044;-84
2023/01/20 02:34:35;;;;;;;32.92;16.33;;;2.50;99.90;;;;;;5036242;28;20120;-84
2023/01/20 02:37:10;;;;;;;35.20;18.50;;;2.50;99.90;;;;;;5036192;28;20123;-84
2023/01/20 02:39:47;;;;;;;36.30;18.38;;;2.40;99.90;;;;;;5036183;28;20032;-84
2023/01/20 02:42:38;;;;;;;35.58;17.58;;;2.40;99.90;;;;;;5036533;28;20053;-84
2023/01/20 02:45:24;;;;;;;38.80;19.30;;;2.40;99.90;;;;;;5054137;28;20032;-89
2023/01/20 02:48:11;;;;;;;40.35;18.75;;;2.30;99.90;;;;;;5006971;28;20124;-88
2023/01/20 02:50:47;;;;;;;37.67;18.25;;;2.40;99.90;;;;;;5037235;28;20033;-88
2023/01/20 02:53:16;;;;;;;39.42;18.77;;;2.40;99.90;;;;;;5037238;28;20033;-87
2023/01/20 02:55:50;;;;;;;42.22;19.98;;;2.40;99.90;;;;;;5036933;28;20025;-88
2023/01/20 02:58:30;;;;;;;41.65;20.48;;;2.40;99.90;;;;;;5037096;28;20025;-88
2023/01/20 03:01:06;;;;;;;42.08;20.27;;;2.40;99.90;;;;;;5054802;28;20029;-88
2023/01/20 03:03:36;;;;;;;43.20;20.83;;;2.40;99.90;;;;;;5038693;28;20124;-88
2023/01/20 03:06:05;;;;;;;46.17;20.58;;;2.40;99.90;;;;;;5036603;28;20119;-84
2023/01/20 03:08:32;;;;;;;46.30;21.75;;;2.40;99.90;;;;;;5035795;28;20033;-84
2023/01/20 03:11:03;;;;;;;44.85;21.92;;;2.40;99.90;;;;;;5035752;28;20501;-85
2023/01/20 03:13:32;;;;;;;47.05;22.70;;;2.40;99.90;;;;;;5035553;28;20127;-84
2023/01/20 03:16:08;;;;;;;49.53;22.88;;;2.40;99.90;;;;;;5036066;28;20047;-85
2023/01/20 03:18:36;;;;;;;48.70;23.05;;;2.30;99.90;;;;;;5036057;28;20060;-87
2023/01/20 03:21:04;;;;;;;52.22;24.58;;;2.30;99.90;;;;;;5053496;28;20026;-87
2023/01/20 03:23:37;;;;;;;44.78;22.33;;;2.40;99.90;;;;;;5036656;28;20107;-87
2023/01/20 03:26:08;;;;;;;54.05;23.83;;;2.40;99.90;;;;;;5035922;28;20048;-85
2023/01/20 03:28:33;;;;;;;54.63;23.47;;;2.40;99.90;;;;;;5035831;28;20052;-85
2023/01/20 03:31:04;;;;;;;61.65;27.33;;;2.30;99.90;;;;;;5019187;28;20041;-85
2023/01/20 03:33:30;;;;;;;53.38;24.33;;;2.40;99.90;;;;;;5035552;28;20052;-85
2023/01/20 03:35:56;;;;;;;57.10;25.30;;;2.30;99.90;;;;;;5019169;28;20059;-87
2023/01/20 03:38:22;;;;;;;60.15;25.42;;;2.30;99.90;;;;;;5019639;28;20128;-87
2023/01/20 03:40:59;;;;;;;56.83;24.67;;;2.30;99.90;;;;;;5020065;28;20124;-86
2023/01/20 03:43:56;;;;;;;63.53;26.60;;;2.30;99.90;;;;;;5036079;28;20033;-87
2023/01/20 03:46:37;;;;;;;58.72;24.25;;;2.30;99.90;;;;;;5035709;28;20112;-87
2023/01/20 03:49:08;;;;;;;60.22;25.80;;;2.30;99.90;;;;;;5035891;28;20095;-89
2023/01/20 03:51:57;;;;;;;57.33;23.08;;;2.30;99.90;;;;;;5036447;28;20041;-86
2023/01/20 03:54:30;;;;;;;61.03;25.25;;;2.30;99.90;;;;;;5036559;28;20572;-86
2023/01/20 03:57:03;;;;;;;62.97;27.92;;;2.30;99.90;;;;;;5040535;28;20478;-86
2023/01/20 03:59:33;;;;;;;65.35;25.98;;;2.30;99.90;;;;;;5040145;28;20025;-86
2023/01/20 04:02:02;;;;;;;68.95;26.92;;;2.30;99.90;;;;;;5058992;28;20037;-87
2023/01/20 04:04:28;;;;;;;55.83;23.63;;;2.30;99.90;;;;;;5058211;28;20029;-87
2023/01/20 04:06:54;;;;;;;61.92;25.48;;;2.30;99.90;;;;;;5040221;28;20461;-88
2023/01/20 04:09:27;;;;;;;67.10;25.92;;;2.30;99.90;;;;;;5039480;28;20162;-85
2023/01/20 04:11:53;;;;;;;63.05;24.88;;;2.30;99.90;;;;;;5038859;28;20076;-85
2023/01/20 04:14:19;;;;;;;67.68;28.05;;;2.40;99.90;;;;;;5021010;28;20110;-85
2023/01/20 04:16:57;;;;;;;64.90;26.00;;;2.40;99.90;;;;;;5037983;28;20035;-85
2023/01/20 04:19:25;;;;;;;73.43;29.23;;;2.40;99.90;;;;;;5038616;28;20044;-85
2023/01/20 04:22:08;;;;;;;76.57;29.77;;;2.40;99.90;;;;;;5022201;28;20025;-85
2023/01/20 04:25:02;;;;;;;65.55;25.73;;;2.40;99.90;;;;;;5038705;28;20469;-88
2023/01/20 04:27:28;;;;;;;78.85;28.40;;;2.40;99.90;;;;;;5039475;28;20033;-88
2023/01/20 04:29:53;;;;;;;69.65;28.13;;;2.40;99.90;;;;;;5038975;28;20083;-88
2023/01/20 04:32:19;;;;;;;69.63;27.65;;;2.40;99.90;;;;;;5022536;28;20076;-88
2023/01/20 04:34:45;;;;;;;68.18;27.35;;;2.30;99.90;;;;;;5022356;28;20394;-88
2023/01/20 04:37:10;;;;;;;77.03;28.00;;;2.30;99.90;;;;;;5022540;28;20041;-88
2023/01/20 04:39:36;;;;;;;75.43;27.10;;;2.30;99.90;;;;;;5023173;28;20028;-85
2023/01/20 04:42:02;;;;;;;74.20;28.08;;;2.30;99.90;;;;;;5038924;28;20385;-89
2023/01/20 04:44:27;;;;;;;79.85;28.23;;;2.20;99.90;;;;;;5022668;28;20079;-88
2023/01/20 04:46:57;;;;;;;64.22;25.88;;;2.20;99.90;;;;;;5039179;28;20044;-89
2023/01/20 04:49:23;;;;;;;76.35;27.00;;;2.20;99.90;;;;;;5022003;28;20040;-88
2023/01/20 04:51:48;;;;;;;68.82;26.15;;;2.30;99.90;;;;;;5021670;28;20044;-87
2023/01/20 04:54:14;;;;;;;74.57;27.77;;;2.30;99.90;;;;;;5021719;28;20071;-87
2023/01/20 04:56:40;;;;;;;65.57;24.58;;;2.20;99.90;;;;;;5038242;28;20538;-87
2023/01/20 04:59:05;;;;;;;61.30;25.08;;;2.20;99.90;;;;;;5022917;28;20039;-85
2023/01/20 05:01:31;;;;;;;65.43;25.63;;;2.20;99.90;;;;;;5020890;28;20037;-85
2023/01/20 05:03:57;;;;;;;61.45;24.90;;;2.20;99.90;;;;;;5021274;28;20032;-82
2023/01/20 05:06:22;;;;;;;69.53;25.35;;;2.20;99.90;;;;;;5020453;28;20478;-82
2023/01/20 05:08:48;;;;;;;66.72;25.67;;;2.30;99.90;;;;;;5037595;28;20036;-83
2023/01/20 05:11:14;;;;;;;54.25;23.95;;;2.20;99.90;;;;;;5021565;28;20442;-82
2023/01/20 05:13:39;;;;;;;54.00;23.33;;;2.20;99.90;;;;;;5021629;28;20063;-82
2023/01/20 05:16:07;;;;;;;63.08;24.27;;;2.20;99.90;;;;;;5022097;28;20040;-85
2023/01/20 05:18:33;;;;;;;53.17;23.02;;;2.20;99.90;;;;;;5038046;28;20363;-86
2023/01/20 05:20:59;;;;;;;58.63;21.95;;;2.10;99.90;;;;;;5022356;28;20072;-85
2023/01/20 05:23:25;;;;;;;55.42;22.02;;;2.10;99.90;;;;;;5038103;28;20032;-87
2023/01/20 05:25:52;;;;;;;57.38;23.48;;;2.10;99.90;;;;;;5021487;28;20037;-86
2023/01/20 05:28:18;;;;;;;53.25;22.83;;;2.10;99.90;;;;;;5021104;28;20041;-86
2023/01/20 05:30:44;;;;;;;58.30;22.23;;;2.20;99.90;;;;;;5055516;28;20551;-85
2023/01/20 05:33:10;;;;;;;50.80;22.00;;;2.20;99.90;;;;;;5055540;28;20522;-86
2023/01/20 05:35:39;;;;;;;51.13;21.05;;;2.20;99.90;;;;;;5038119;28;20041;-86
2023/01/20 05:38:05;;;;;;;59.00;23.20;;;2.20;99.90;;;;;;5021483;28;20482;-85
2023/01/20 05:40:31;;;;;;;49.85;21.45;;;2.20;99.90;;;;;;5037966;28;20041;-85
2023/01/20 05:43:01;;;;;;;51.83;22.45;;;2.20;99.90;;;;;;5037563;28;20033;-88
2023/01/20 05:45:27;;;;;;;55.60;22.60;;;2.20;99.90;;;;;;5037589;28;20041;-88
2023/01/20 05:47:57;;;;;;;57.78;22.02;;;2.20;99.90;;;;;;5021175;28;20497;-88
2023/01/20 05:50:25;;;;;;;59.28;24.63;;;2.20;99.90;;;;;;5021265;28;20482;-88
2023/01/20 05:52:51;;;;;;;47.42;20.75;;;2.10;99.90;;;;;;5037335;28;20493;-89
2023/01/20 05:58:38;;;;;;;48.17;20.00;;;2.10;99.90;;;;;;5055545;28;20051;-88
2023/01/20 06:01:10;;;;;;;49.92;21.60;;;2.10;99.90;;;;;;5020908;28;20485;-89
2023/01/20 06:03:37;;;;;;;51.50;21.10;;;2.10;99.90;;;;;;5037491;28;20505;-89
2023/01/20 06:06:05;;;;;;;53.50;21.45;;;2.00;99.90;;;;;;5022412;28;20025;-87
2023/01/20 06:08:31;;;;;;;47.55;19.02;;;1.90;99.90;;;;;;4998140;28;20042;-87
2023/01/20 06:10:57;;;;;;;51.53;20.33;;;1.90;99.90;;;;;;5034944;28;20502;-88
2023/01/20 06:13:22;;;;;;;48.90;20.38;;;1.90;99.90;;;;;;5001003;28;20152;-88
2023/01/20 06:15:52;;;;;;;48.08;21.40;;;1.90;99.90;;;;;;5001131;28;20053;-88
2023/01/20 06:18:19;;;;;;;56.10;22.38;;;1.90;99.90;;;;;;5034054;28;20068;-88
2023/01/20 06:20:44;;;;;;;48.45;19.38;;;1.90;99.90;;;;;;4984519;28;20037;-87
2023/01/20 06:23:10;;;;;;;50.25;21.02;;;1.90;99.90;;;;;;5013029;28;20125;-87
2023/01/20 06:25:36;;;;;;;48.80;19.55;;;1.80;99.90;;;;;;4990209;28;20091;-87
2023/01/20 06:28:01;;;;;;;48.45;19.15;;;1.80;99.90;;;;;;5007457;28;20033;-84
2023/01/20 06:30:27;;;;;;;51.50;19.73;;;1.80;99.90;;;;;;4997218;28;20053;-85
2023/01/20 06:32:53;;;;;;;53.65;19.42;;;1.80;99.90;;;;;;4988327;28;20468;-84
2023/01/20 06:35:20;;;;;;;49.03;19.67;;;1.80;99.90;;;;;;4963354;28;20053;-83
2023/01/20 06:37:46;;;;;;;47.90;20.20;;;1.80;99.90;;;;;;4964673;28;20039;-86
2023/01/20 06:40:12;;;;;;;52.53;21.00;;;1.80;99.90;;;;;;4961429;28;20041;-87
2023/01/20 06:42:38;;;;;;;47.08;20.58;;;1.80;99.90;;;;;;4977329;28;20039;-87
2023/01/20 06:45:04;;;;;;;45.35;19.83;;;1.90;99.90;;;;;;4978540;28;20046;-88
2023/01/20 06:47:29;;;;;;;52.53;20.27;;;1.90;99.90;;;;;;5004244;28;20046;-88
2023/01/20 06:49:55;;;;;;;49.58;19.85;;;1.90;99.90;;;;;;4991694;28;20037;-84
2023/01/20 06:52:20;;;;;;;48.55;21.25;;;1.90;99.90;;;;;;5008125;28;20042;-87
2023/01/20 06:54:46;;;;;;;49.10;20.60;;;2.00;99.90;;;;;;4985452;28;20038;-88
2023/01/20 06:57:14;;;;;;;51.60;20.55;;;2.00;99.90;;;;;;4965738;28;20073;-87
2023/01/20 06:59:40;;;;;;;53.22;21.58;;;1.90;99.90;;;;;;4972270;28;20042;-88
2023/01/20 07:02:06;;;;;;;47.95;21.85;;;1.90;99.90;;;;;;4979353;28;20033;-88
2023/01/20 07:04:31;;;;;;;55.55;24.13;;;2.00;99.90;;;;;;5000980;28;20382;-84
2023/01/20 07:06:57;;;;;;;46.85;20.98;;;1.90;99.90;;;;;;5014855;28;20503;-86
2023/01/20 07:09:22;;;;;;;60.53;23.23;;;1.90;99.90;;;;;;4995027;28;20026;-85
2023/01/20 07:11:48;;;;;;;55.63;23.42;;;1.90;99.90;;;;;;4986488;28;20038;-84
2023/01/20 07:14:14;;;;;;;52.60;22.25;;;1.90;99.90;;;;;;4988231;28;20542;-84
2023/01/20 07:16:39;;;;;;;49.17;22.17;;;1.90;99.90;;;;;;5006543;28;20076;-88
2023/01/20 07:19:05;;;;;;;60.30;24.25;;;1.90;99.90;;;;;;4995126;28;20604;-87
2023/01/20 07:21:31;;;;;;;52.60;23.33;;;1.80;99.90;;;;;;5015497;28;20045;-88
2023/01/20 07:24:01;;;;;;;60.08;23.05;;;1.90;99.90;;;;;;4992816;28;20057;-87
2023/01/20 07:26:27;;;;;;;53.88;22.77;;;1.90;99.90;;;;;;5013741;28;20438;-87
2023/01/20 07:28:52;;;;;;;57.83;22.35;;;1.80;99.90;;;;;;5012231;28;20041;-84
2023/01/20 07:31:23;;;;;;;59.10;25.08;;;1.80;99.90;;;;;;5013165;28;20061;-84
2023/01/20 07:33:49;;;;;;;56.15;22.80;;;1.80;99.90;;;;;;5033154;28;20056;-84
2023/01/20 07:36:16;;;;;;;52.88;22.70;;;1.90;99.90;;;;;;5027629;28;20060;-84
2023/01/20 07:38:42;;;;;;;54.47;23.75;;;1.90;99.90;;;;;;5022068;28;20471;-84
2023/01/20 07:41:14;;;;;;;57.50;23.30;;;1.90;99.90;;;;;;5032966;28;20120;-84
2023/01/20 07:43:40;;;;;;;56.55;23.42;;;1.90;99.90;;;;;;5003131;28;20052;-84
2023/01/20 07:46:06;;;;;;;48.78;21.63;;;1.90;99.90;;;;;;5002521;28;20029;-86
2023/01/20 07:48:32;;;;;;;58.67;21.60;;;1.80;99.90;;;;;;5026296;28;20478;-86
2023/01/20 07:51:01;;;;;;;59.13;24.73;;;1.80;99.90;;;;;;5026060;28;20033;-86
2023/01/20 07:53:34;;;;;;;50.97;22.80;;;1.80;99.90;;;;;;5023515;28;20049;-86
2023/01/20 07:56:06;;;;;;;59.42;24.10;;;1.80;99.90;;;;;;5028154;28;20037;-86
2023/01/20 07:58:32;;;;;;;55.63;23.40;;;1.80;99.90;;;;;;5017537;28;20035;-86
2023/01/20 08:01:06;;;;;;;50.95;22.10;;;1.80;99.90;;;;;;5028383;28;20025;-86
2023/01/20 08:03:32;;;;;;;52.45;23.70;;;1.80;99.90;;;;;;5026683;28;20486;-86
2023/01/20 08:06:02;;;;;;;52.40;23.70;;;1.80;99.90;;;;;;5002728;28;20057;-86
2023/01/20 08:08:28;;;;;;;57.72;23.65;;;1.80;99.90;;;;;;5029751;28;20052;-86
2023/01/20 08:10:53;;;;;;;58.58;22.38;;;1.90;99.90;;;;;;5004170;28;20391;-86
2023/01/20 08:13:19;;;;;;;58.05;23.63;;;1.90;99.90;;;;;;5012243;28;20048;-86
2023/01/20 08:15:46;;;;;;;61.92;24.27;;;1.90;99.90;;;;;;5034903;28;20037;-87
2023/01/20 08:18:11;;;;;;;68.80;25.48;;;1.90;99.90;;;;;;5020447;28;20038;-86
2023/01/20 08:20:40;;;;;;;65.28;25.25;;;1.90;99.90;;;;;;5014968;28;20052;-85
2023/01/20 08:23:06;;;;;;;60.95;24.77;;;1.90;99.90;;;;;;5002639;28;21477;-88
2023/01/20 08:25:32;;;;;;;61.80;25.67;;;1.90;99.90;;;;;;5006666;28;20026;-86
2023/01/20 08:27:58;;;;;;;66.25;25.88;;;1.90;99.90;;;;;;5007509;28;20136;-86
2023/01/20 08:30:23;;;;;;;62.90;26.10;;;1.90;99.90;;;;;;5032901;28;20053;-86
2023/01/20 08:32:49;;;;;;;60.63;24.70;;;1.90;99.90;;;;;;5030365;28;20059;-86
2023/01/20 08:35:15;;;;;;;65.53;25.05;;;1.90;99.90;;;;;;4981850;28;20405;-85
2023/01/20 08:37:41;;;;;;;60.90;25.75;;;1.90;99.90;;;;;;5035622;28;20034;-86
2023/01/20 08:40:08;;;;;;;63.03;24.98;;;1.90;99.90;;;;;;5002184;28;20561;-85
2023/01/20 08:42:35;;;;;;;61.28;25.27;;;1.90;99.90;;;;;;5033359;28;20036;-85
2023/01/20 08:45:02;;;;;;;56.20;24.70;;;1.80;99.90;;;;;;5004943;28;20038;-86
2023/01/20 08:47:28;;;;;;;61.10;24.38;;;1.90;99.90;;;;;;5034615;28;20171;-85
2023/01/20 08:49:53;;;;;;;59.35;24.02;;;1.90;99.90;;;;;;4983012;28;20129;-85
2023/01/20 08:52:19;;;;;;;57.05;24.63;;;1.90;99.90;;;;;;4983655;28;20041;-83
2023/01/20 08:54:45;;;;;;;63.47;24.23;;;1.90;99.90;;;;;;5029293;28;20037;-83
2023/01/20 08:57:11;;;;;;;58.65;23.95;;;1.90;99.90;;;;;;5016662;28;20045;-83
2023/01/20 08:59:37;;;;;;;63.47;24.75;;;2.00;99.90;;;;;;5017099;28;20045;-83
2023/01/20 09:02:02;;;;;;;67.95;25.25;;;2.00;99.90;;;;;;5008388;28;20524;-92
2023/01/20 09:05:15;;;;;;;64.60;26.70;;;2.00;99.90;;;;;;5027552;28;20061;-90
2023/01/20 09:07:44;;;;;;;61.08;24.63;;;2.00;99.90;;;;;;5022351;28;20131;-89
2023/01/20 09:10:17;;;;;;;64.57;25.23;;;2.00;99.90;;;;;;5012861;28;20041;-92
2023/01/20 09:12:42;;;;;;;55.60;24.02;;;2.00;99.90;;;;;;4997357;28;20494;-90
2023/01/20 09:18:36;;;;;;;61.78;22.85;;;2.10;99.90;;;;;;5037849;28;20041;-94
2023/01/20 09:21:05;;;;;;;55.97;21.77;;;2.10;99.90;;;;;;5040305;28;20060;-94
2023/01/20 09:26:21;;;;;;;57.17;23.55;;;2.00;99.90;;;;;;5038445;28;20060;-92
2023/01/20 09:28:49;;;;;;;58.42;25.15;;;2.00;99.90;;;;;;5019556;28;20029;-91
2023/01/20 09:31:21;;;;;;;60.10;22.40;;;2.00;99.90;;;;;;4985032;28;20045;-94
2023/01/20 09:34:20;;;;;;;60.85;23.90;;;2.00;99.90;;;;;;4975513;28;20116;-92
2023/01/20 09:47:25;;;;;;;60.05;23.80;;;2.00;99.90;;;;;;4953293;29;20031;-95
2023/01/20 09:55:26;;;;;;;58.63;21.98;;;2.10;99.90;;;;;;4943001;29;20118;-89
2023/01/20 10:08:46;;;;;;;53.30;23.75;;;2.10;99.90;;;;;;5009382;28;20033;-90
2023/01/20 10:11:16;;;;;;;50.65;21.40;;;2.10;99.90;;;;;;4996913;28;20048;-89
2023/01/20 10:14:02;;;;;;;49.60;22.20;;;2.20;99.90;;;;;;4990037;28;20055;-88
2023/01/20 10:16:59;;;;;;;49.72;22.40;;;2.20;99.90;;;;;;4998558;28;20494;-88
2023/01/20 10:19:41;;;;;;;54.78;23.52;;;2.20;99.90;;;;;;4994233;28;20085;-91
2023/01/20 10:22:36;;;;;;;56.25;24.63;;;2.20;99.90;;;;;;4995165;28;20037;-90
2023/01/20 10:25:21;;;;;;;52.05;22.90;;;2.20;99.90;;;;;;4995253;28;20083;-89
2023/01/20 10:27:58;;;;;;;56.63;23.85;;;2.20;99.90;;;;;;4999104;28;20458;-88
2023/01/20 10:30:29;;;;;;;52.25;21.67;;;2.30;99.90;;;;;;4994647;28;20037;-92
2023/01/20 10:33:55;;;;;;;57.17;22.70;;;2.30;99.90;;;;;;5007142;28;20540;-88
2023/01/20 10:39:56;;;;;;;50.97;22.35;;;2.40;99.90;;;;;;5004461;28;20044;-89
2023/01/20 10:42:27;;;;;;;49.53;23.50;;;2.30;99.90;;;;;;5017911;28;20054;-91
2023/01/20 10:44:57;;;;;;;52.70;24.20;;;2.40;99.90;;;;;;4993390;28;20096;-92
2023/01/20 10:50:52;;;;;;;52.28;22.10;;;2.40;99.90;;;;;;4958402;28;20049;-90
2023/01/20 10:53:32;;;;;;;54.60;23.00;;;2.40;99.90;;;;;;5000533;28;20038;-90
2023/01/20 10:56:17;;;;;;;51.92;23.58;;;2.40;99.90;;;;;;5008273;28;20603;-90
2023/01/20 10:58:44;;;;;;;52.88;22.30;;;2.40;99.90;;;;;;5009979;28;20029;-90
2023/01/20 11:01:29;;;;;;;58.08;23.27;;;2.40;99.90;;;;;;5009722;28;20030;-88
2023/01/20 11:03:55;;;;;;;51.85;24.35;;;2.40;99.90;;;;;;5022036;28;20026;-89
2023/01/20 11:06:30;;;;;;;47.58;21.52;;;2.50;99.90;;;;;;4995737;28;20506;-90
2023/01/20 11:09:00;;;;;;;43.00;20.98;;;2.50;99.90;;;;;;5017294;28;20034;-89
2023/01/20 11:11:28;;;;;;;46.88;22.13;;;2.50;99.90;;;;;;5011150;28;20020;-90
2023/01/20 11:13:54;;;;;;;46.63;21.58;;;2.50;99.90;;;;;;5010723;28;20520;-87
2023/01/20 11:16:27;;;;;;;44.35;20.63;;;2.60;99.90;;;;;;5023751;28;20125;-90
2023/01/20 11:19:00;;;;;;;42.78;21.23;;;2.60;99.90;;;;;;5027086;28;20117;-89
2023/01/20 11:21:29;;;;;;;41.85;19.85;;;2.60;99.90;;;;;;5007927;28;20096;-88
2023/01/20 11:23:57;;;;;;;42.90;21.45;;;2.60;99.90;;;;;;5008057;28;20080;-88
2023/01/20 11:26:34;;;;;;;40.72;20.52;;;2.60;99.90;;;;;;4987256;28;20150;-89
2023/01/20 11:29:21;;;;;;;37.35;19.90;;;2.60;99.90;;;;;;5022481;28;20038;-90
2023/01/20 11:31:50;;;;;;;39.65;19.58;;;2.60;99.90;;;;;;5007333;28;20046;-90
2023/01/20 11:34:35;;;;;;;39.20;20.02;;;2.60;99.90;;;;;;5012727;28;20065;-91
2023/01/20 11:37:03;;;;;;;35.95;19.27;;;2.60;99.90;;;;;;5000669;28;20053;-89
2023/01/20 11:42:45;;;;;;;35.78;18.83;;;2.70;99.90;;;;;;5013647;28;20080;-93
2023/01/20 11:45:34;;;;;;;36.80;18.63;;;2.70;99.90;;;;;;5009188;28;20030;-94
2023/01/20 11:48:17;;;;;;;33.35;18.20;;;2.70;99.90;;;;;;5013458;28;20040;-92
2023/01/20 11:51:38;;;;;;;35.03;18.40;;;2.70;99.90;;;;;;5000789;28;20066;-93
2023/01/20 11:54:30;;;;;;;32.47;17.15;;;2.70;99.90;;;;;;4953647;28;20034;-92
2023/01/20 11:57:03;;;;;;;31.33;16.52;;;2.70;99.90;;;;;;5007713;28;20072;-92
2023/01/20 11:59:40;;;;;;;33.65;17.73;;;2.70;99.90;;;;;;4999002;28;20494;-87
2023/01/20 12:02:23;;;;;;;30.38;16.98;;;2.70;99.90;;;;;;5011952;28;20040;-93
2023/01/20 12:04:56;;;;;;;30.20;17.00;;;2.80;99.90;;;;;;5002987;28;20022;-91
2023/01/20 12:07:28;;;;;;;34.33;18.17;;;2.80;99.90;;;;;;4999114;28;20046;-91
2023/01/20 12:10:02;;;;;;;33.35;17.73;;;2.70;99.90;;;;;;5000586;28;20554;-91
2023/01/20 12:12:43;;;;;;;32.88;18.42;;;2.80;99.90;;;;;;5007129;28;20121;-92
2023/01/20 12:15:20;;;;;;;30.90;16.55;;;2.80;99.90;;;;;;4999983;28;20065;-90
2023/01/20 12:18:04;;;;;;;31.65;15.80;;;2.80;99.90;;;;;;5001707;28;20192;-93
2023/01/20 12:20:47;;;;;;;31.20;17.38;;;2.80;99.90;;;;;;4999257;28;20026;-89
2023/01/20 12:23:27;;;;;;;31.30;17.30;;;2.80;99.90;;;;;;5003283;28;20041;-91
2023/01/20 12:26:05;;;;;;;31.80;17.67;;;2.80;99.90;;;;;;5000667;28;20042;-91
2023/01/20 12:28:51;;;;;;;29.23;16.67;;;2.90;99.90;;;;;;4988988;28;20060;-89
2023/01/20 12:31:19;;;;;;;31.33;16.52;;;2.90;99.90;;;;;;5007348;28;20418;-93
2023/01/20 12:33:49;;;;;;;26.60;15.45;;;2.90;99.90;;;;;;4989070;28;20061;-93
2023/01/20 12:36:22;;;;;;;26.15;15.68;;;2.90;99.90;;;;;;4993447;28;20583;-91
2023/01/20 12:39:09;;;;;;;25.45;14.63;;;3.00;99.90;;;;;;4996767;28;20057;-89
2023/01/20 12:42:04;;;;;;;27.23;16.02;;;3.00;99.90;;;;;;4998951;28;20061;-92
2023/01/20 12:44:55;;;;;;;23.92;14.98;;;3.00;99.90;;;;;;5006314;28;20064;-92
2023/01/20 12:48:03;;;;;;;26.03;15.80;;;3.00;99.90;;;;;;5003529;28;20034;-87
2023/01/20 12:50:53;;;;;;;25.80;15.63;;;3.00;99.90;;;;;;5007772;28;20292;-88
2023/01/20 12:53:38;;;;;;;22.98;14.55;;;3.00;99.90;;;;;;5003983;28;20038;-89
2023/01/20 12:56:22;;;;;;;22.38;13.75;;;3.00;99.90;;;;;;5001206;28;20495;-89
2023/01/20 12:59:18;;;;;;;22.08;13.95;;;3.00;99.90;;;;;;4999012;28;20128;-88
2023/01/20 13:02:09;;;;;;;24.58;15.27;;;3.00;99.90;;;;;;4992219;28;20482;-88
2023/01/20 13:05:01;;;;;;;23.42;14.60;;;3.00;99.90;;;;;;4993538;28;20037;-86
2023/01/20 13:07:57;;;;;;;23.08;14.35;;;3.00;99.90;;;;;;4997945;28;20037;-86
2023/01/20 13:10:51;;;;;;;22.15;13.88;;;3.10;99.90;;;;;;4986492;28;20133;-87
2023/01/20 13:16:45;;;;;;;21.00;14.18;;;3.00;99.90;;;;;;5004890;28;20052;-87
2023/01/20 13:19:26;;;;;;;20.58;13.32;;;3.00;99.90;;;;;;4992859;28;20133;-88
2023/01/20 13:21:53;;;;;;;22.95;13.52;;;3.00;99.90;;;;;;4999299;28;20062;-88
2023/01/20 13:24:28;;;;;;;20.92;13.70;;;3.10;99.90;;;;;;4993868;28;20077;-87
2023/01/20 13:26:59;;;;;;;20.30;13.35;;;3.10;99.90;;;;;;4987285;28;20514;-88
2023/01/20 13:29:49;;;;;;;20.58;12.63;;;3.10;99.90;;;;;;4980880;28;20565;-88
2023/01/20 13:33:04;;;;;;;21.50;12.55;;;3.10;99.90;;;;;;4999358;28;20041;-88
2023/01/20 13:36:19;;;;;;;22.33;12.85;;;3.10;99.90;;;;;;4992350;28;20068;-89
2023/01/20 13:39:31;;;;;;;24.08;14.70;;;3.10;99.90;;;;;;4987729;28;20033;-91
2023/01/20 13:41:57;;;;;;;21.40;13.45;;;3.20;99.90;;;;;;4992223;28;20123;-89
2023/01/20 13:44:34;;;;;;;23.70;15.48;;;3.20;99.90;;;;;;4996306;28;20023;-93
2023/01/20 13:49:53;;;;;;;23.80;14.95;;;3.20;99.90;;;;;;5010736;28;20034;-91
2023/01/20 13:53:03;;;;;;;22.58;14.30;;;3.20;99.90;;;;;;4997289;28;20041;-91
2023/01/20 13:55:55;;;;;;;22.88;14.05;;;3.30;99.90;;;;;;4989015;28;20048;-91